createdAt,value
2023-01-31T00:01:31.167Z,0.89
2023-01-31T00:03:02.965Z,0.86
2023-01-31T00:04:35.077Z,0.87
2023-01-31T00:06:14.510Z,0.87
2023-01-31T00:07:48.139Z,0.88
2023-01-31T00:09:20.249Z,0.86
2023-01-31T00:10:52.118Z,0.87
2023-01-31T00:12:23.952Z,0.91
2023-01-31T00:13:55.899Z,0.91
2023-01-31T00:15:27.768Z,0.91
2023-01-31T00:16:59.592Z,0.91
2023-01-31T00:18:31.522Z,0.95
2023-01-31T00:20:03.491Z,1.03
2023-01-31T00:21:35.975Z,1.01
2023-01-31T00:23:08.150Z,0.89
2023-01-31T00:24:40.065Z,0.92
2023-01-31T00:26:13.818Z,0.92
2023-01-31T00:27:45.679Z,0.96
2023-01-31T00:29:17.527Z,1.00
2023-01-31T00:30:49.382Z,1.05
2023-01-31T00:32:21.416Z,1.13
2023-01-31T00:33:54.090Z,1.17
2023-01-31T00:35:26.063Z,1.22
2023-01-31T00:36:58.158Z,1.18
2023-01-31T00:38:29.992Z,1.18
2023-01-31T00:40:01.931Z,1.23
2023-01-31T00:41:34.574Z,1.28
2023-01-31T00:43:06.479Z,1.32
2023-01-31T00:44:38.303Z,1.36
2023-01-31T00:46:10.222Z,1.40
2023-01-31T00:47:42.183Z,1.41
2023-01-31T00:49:14.034Z,1.41
2023-01-31T00:50:45.869Z,1.42
2023-01-31T00:52:17.977Z,1.43
2023-01-31T00:53:50.697Z,1.42
2023-01-31T00:55:22.637Z,1.42
2023-01-31T00:56:54.479Z,1.43
2023-01-31T00:58:26.348Z,1.45
2023-01-31T00:59:58.159Z,1.44
2023-01-31T01:01:30.140Z,1.45
2023-01-31T01:03:01.986Z,1.43
2023-01-31T01:04:34.422Z,1.41
2023-01-31T01:06:07.438Z,1.40
2023-01-31T01:07:39.324Z,1.41
2023-01-31T01:09:11.193Z,1.41
2023-01-31T01:10:43.035Z,1.40
2023-01-31T01:12:14.981Z,1.41
2023-01-31T01:13:46.815Z,1.41
2023-01-31T01:15:19.067Z,1.37
2023-01-31T01:16:51.100Z,1.34
2023-01-31T01:18:24.088Z,1.34
2023-01-31T01:19:56.029Z,1.34
2023-01-31T01:23:07.432Z,1.31
2023-01-31T01:24:43.123Z,1.29
2023-01-31T01:26:16.169Z,1.28
2023-01-31T01:27:48.000Z,1.25
2023-01-31T01:29:19.955Z,1.25
2023-01-31T01:30:51.802Z,1.24
2023-01-31T01:32:23.739Z,1.23
2023-01-31T01:33:56.521Z,1.22
2023-01-31T01:35:28.340Z,1.22
2023-01-31T01:37:00.200Z,1.22
2023-01-31T01:38:34.164Z,1.22
2023-01-31T01:40:06.272Z,1.24
2023-01-31T01:41:38.865Z,1.21
2023-01-31T01:43:15.091Z,1.22
2023-01-31T01:44:50.017Z,1.21
2023-01-31T01:46:21.848Z,1.19
2023-01-31T01:47:54.451Z,1.19
2023-01-31T01:49:29.063Z,1.17
2023-01-31T01:51:01.510Z,1.16
2023-01-31T01:52:34.048Z,1.16
2023-01-31T01:54:07.308Z,1.18
2023-01-31T01:55:49.933Z,1.17
2023-01-31T01:57:23.055Z,1.16
2023-01-31T01:59:01.000Z,1.16
2023-01-31T02:00:32.863Z,1.14
2023-01-31T02:02:04.746Z,1.13
2023-01-31T02:03:36.596Z,1.10
2023-01-31T02:05:08.623Z,1.08
2023-01-31T02:06:40.681Z,1.04
2023-01-31T02:08:13.204Z,1.10
2023-01-31T02:09:54.240Z,1.16
2023-01-31T02:11:27.573Z,1.16
2023-01-31T02:12:59.391Z,1.23
2023-01-31T02:14:31.245Z,1.28
2023-01-31T02:16:03.052Z,1.36
2023-01-31T02:17:35.232Z,1.42
2023-01-31T02:19:09.956Z,1.48
2023-01-31T02:20:51.064Z,1.57
2023-01-31T02:22:26.280Z,1.67
2023-01-31T02:24:10.460Z,1.75
2023-01-31T02:25:45.305Z,1.84
2023-01-31T02:27:32.198Z,1.93
2023-01-31T02:29:16.037Z,2.05
2023-01-31T02:31:06.306Z,2.12
2023-01-31T02:32:47.081Z,2.18
2023-01-31T02:34:30.981Z,2.22
2023-01-31T02:36:12.253Z,2.31
2023-01-31T02:37:47.008Z,2.36
2023-01-31T02:39:23.292Z,2.42
2023-01-31T02:41:13.559Z,2.45
2023-01-31T02:42:54.855Z,2.52
2023-01-31T02:44:44.874Z,2.52
2023-01-31T02:46:16.962Z,2.52
2023-01-31T02:48:05.108Z,2.52
2023-01-31T02:49:41.837Z,2.58
2023-01-31T02:51:19.166Z,2.58
2023-01-31T02:52:58.597Z,2.55
2023-01-31T02:54:50.559Z,2.60
2023-01-31T02:56:25.201Z,2.69
2023-01-31T02:57:57.656Z,2.69
2023-01-31T02:59:32.264Z,2.70
2023-01-31T03:01:04.507Z,2.76
2023-01-31T03:02:36.651Z,2.73
2023-01-31T03:04:09.702Z,2.75
2023-01-31T03:05:43.075Z,2.83
2023-01-31T03:07:16.276Z,2.80
2023-01-31T03:08:48.139Z,2.75
2023-01-31T03:10:33.648Z,2.76
2023-01-31T03:12:06.705Z,2.78
2023-01-31T03:13:47.187Z,2.82
2023-01-31T03:15:51.502Z,2.82
2023-01-31T03:17:35.394Z,2.83
2023-01-31T03:19:14.182Z,2.84
2023-01-31T03:20:48.740Z,2.84
2023-01-31T03:22:24.525Z,2.87
2023-01-31T03:23:56.450Z,2.79
2023-01-31T03:25:29.862Z,2.81
2023-01-31T03:27:02.971Z,2.86
2023-01-31T03:28:37.406Z,2.89
2023-01-31T03:30:10.625Z,2.91
2023-01-31T03:31:44.708Z,2.90
2023-01-31T03:33:24.443Z,2.80
2023-01-31T03:34:56.334Z,2.87
2023-01-31T03:38:26.469Z,2.87
2023-01-31T03:40:17.456Z,2.85
2023-01-31T03:42:07.802Z,2.86
2023-01-31T03:43:59.074Z,2.83
2023-01-31T03:45:33.909Z,2.86
2023-01-31T03:47:07.661Z,2.88
2023-01-31T03:48:41.332Z,2.87
2023-01-31T03:50:33.588Z,2.86
2023-01-31T03:52:07.853Z,2.94
2023-01-31T03:53:46.895Z,2.99
2023-01-31T03:55:42.066Z,3.01
2023-01-31T03:57:14.339Z,3.02
2023-01-31T03:58:48.030Z,3.02
2023-01-31T04:00:20.196Z,3.00
2023-01-31T04:01:52.533Z,3.03
2023-01-31T04:03:27.271Z,3.01
2023-01-31T04:05:10.071Z,3.04
2023-01-31T04:06:41.936Z,2.91
2023-01-31T04:08:14.324Z,2.94
2023-01-31T04:09:46.314Z,2.96
2023-01-31T04:11:20.068Z,2.88
2023-01-31T04:12:52.000Z,2.88
2023-01-31T04:14:23.900Z,2.84
2023-01-31T04:15:55.928Z,2.89
2023-01-31T04:17:27.983Z,2.87
2023-01-31T04:18:59.887Z,2.90
2023-01-31T04:20:32.067Z,2.93
2023-01-31T04:22:03.905Z,2.93
2023-01-31T04:23:36.054Z,2.94
2023-01-31T04:25:08.343Z,2.91
2023-01-31T04:26:40.406Z,2.87
2023-01-31T04:28:12.360Z,2.82
2023-01-31T04:29:44.210Z,2.90
2023-01-31T04:31:16.196Z,2.94
2023-01-31T04:32:48.219Z,2.94
2023-01-31T04:34:20.048Z,2.95
2023-01-31T04:35:52.281Z,2.89
2023-01-31T04:37:24.236Z,2.95
2023-01-31T04:38:56.124Z,2.94
2023-01-31T04:40:28.129Z,2.91
2023-01-31T04:42:00.087Z,2.89
2023-01-31T04:43:31.975Z,2.90
2023-01-31T04:45:04.377Z,2.95
2023-01-31T04:46:36.619Z,2.95
2023-01-31T04:48:08.883Z,2.97
2023-01-31T04:49:41.170Z,3.01
2023-01-31T04:51:13.049Z,3.04
2023-01-31T04:52:44.960Z,3.07
2023-01-31T04:54:16.824Z,3.04
2023-01-31T04:55:48.754Z,2.98
2023-01-31T04:57:20.957Z,3.00
2023-01-31T04:58:52.845Z,2.99
2023-01-31T05:00:24.695Z,3.04
2023-01-31T05:01:56.548Z,3.00
2023-01-31T05:03:30.553Z,2.99
2023-01-31T05:05:03.201Z,2.96
2023-01-31T05:06:35.078Z,3.00
2023-01-31T05:08:06.962Z,3.04
2023-01-31T05:09:39.209Z,3.05
2023-01-31T05:11:11.119Z,3.02
2023-01-31T05:12:42.983Z,3.09
2023-01-31T05:14:15.296Z,3.07
2023-01-31T05:15:48.682Z,3.11
2023-01-31T05:17:26.460Z,3.10
2023-01-31T05:18:58.440Z,3.08
2023-01-31T05:20:36.840Z,3.06
2023-01-31T05:22:08.632Z,3.07
2023-01-31T05:23:40.453Z,3.06
2023-01-31T05:25:12.265Z,3.09
2023-01-31T05:26:44.148Z,3.07
2023-01-31T05:28:16.003Z,2.97
2023-01-31T05:29:48.160Z,3.04
2023-01-31T05:31:20.275Z,3.11
2023-01-31T05:32:52.310Z,3.08
2023-01-31T05:34:31.231Z,3.08
2023-01-31T05:36:03.710Z,3.08
2023-01-31T05:37:35.958Z,3.08
2023-01-31T05:39:07.852Z,3.10
2023-01-31T05:40:39.839Z,3.11
2023-01-31T05:42:11.690Z,3.12
2023-01-31T05:43:43.478Z,3.07
2023-01-31T05:45:16.891Z,3.02
2023-01-31T05:46:48.919Z,3.05
2023-01-31T05:48:20.757Z,3.00
2023-01-31T05:49:52.573Z,3.03
2023-01-31T05:51:24.596Z,3.02
2023-01-31T05:52:57.592Z,3.04
2023-01-31T05:54:29.427Z,2.90
2023-01-31T05:56:01.564Z,2.97
2023-01-31T05:57:33.523Z,2.93
2023-01-31T05:59:05.579Z,2.94
2023-01-31T06:00:37.429Z,2.93
2023-01-31T06:02:11.622Z,2.89
2023-01-31T06:03:43.506Z,2.82
2023-01-31T06:05:15.389Z,2.79
2023-01-31T06:06:47.333Z,2.86
2023-01-31T06:08:19.163Z,2.85
2023-01-31T06:09:51.002Z,2.90
2023-01-31T06:11:22.962Z,2.93
2023-01-31T06:12:54.775Z,2.92
2023-01-31T06:14:26.705Z,2.89
2023-01-31T06:15:59.216Z,2.83
2023-01-31T06:17:32.091Z,2.86
2023-01-31T06:19:04.151Z,2.86
2023-01-31T06:20:36.358Z,2.82
2023-01-31T06:22:08.250Z,2.82
2023-01-31T06:23:40.783Z,2.87
2023-01-31T06:25:12.727Z,2.80
2023-01-31T06:26:44.760Z,2.83
2023-01-31T06:28:16.739Z,2.88
2023-01-31T06:29:48.646Z,2.89
2023-01-31T06:31:20.634Z,2.92
2023-01-31T06:32:52.593Z,2.88
2023-01-31T06:34:24.456Z,2.92
2023-01-31T06:35:59.530Z,2.98
2023-01-31T06:37:31.918Z,2.97
2023-01-31T06:39:06.610Z,3.01
2023-01-31T06:40:38.499Z,3.03
2023-01-31T06:42:12.904Z,3.06
2023-01-31T06:43:44.953Z,3.12
2023-01-31T06:45:17.056Z,3.15
2023-01-31T06:46:48.940Z,3.16
2023-01-31T06:48:21.500Z,3.18
2023-01-31T06:49:53.369Z,3.29
2023-01-31T06:51:25.237Z,3.32
2023-01-31T06:52:57.200Z,3.37
2023-01-31T06:54:29.087Z,3.43
2023-01-31T06:56:00.929Z,3.50
2023-01-31T06:57:32.896Z,3.52
2023-01-31T06:59:04.869Z,3.58
2023-01-31T07:00:36.855Z,3.58
2023-01-31T07:02:09.986Z,3.60
2023-01-31T07:03:42.168Z,3.61
2023-01-31T07:05:14.377Z,3.67
2023-01-31T07:06:46.248Z,3.74
2023-01-31T07:08:18.418Z,3.78
2023-01-31T07:09:50.216Z,3.78
2023-01-31T07:11:22.103Z,3.75
2023-01-31T07:12:53.902Z,3.75
2023-01-31T07:14:25.730Z,3.79
2023-01-31T07:15:57.697Z,3.78
2023-01-31T07:17:30.105Z,3.76
2023-01-31T07:19:02.120Z,3.70
2023-01-31T07:20:34.211Z,3.69
2023-01-31T07:22:06.090Z,3.69
2023-01-31T07:23:38.002Z,3.67
2023-01-31T07:25:09.944Z,3.72
2023-01-31T07:26:41.949Z,3.80
2023-01-31T07:28:13.921Z,3.83
2023-01-31T07:29:45.722Z,3.89
2023-01-31T07:31:17.616Z,3.91
2023-01-31T07:32:50.120Z,3.96
2023-01-31T07:34:23.417Z,3.92
2023-01-31T07:35:55.242Z,3.94
2023-01-31T07:37:27.165Z,3.95
2023-01-31T07:39:00.275Z,3.97
2023-01-31T07:40:32.273Z,3.95
2023-01-31T07:42:04.245Z,3.96
2023-01-31T07:43:36.187Z,3.99
2023-01-31T07:45:33.569Z,3.99
2023-01-31T07:47:00.604Z,3.98
2023-01-31T07:48:33.038Z,4.01
2023-01-31T07:50:05.144Z,4.09
2023-01-31T07:51:39.229Z,4.07
2023-01-31T07:53:11.204Z,4.15
2023-01-31T07:54:43.119Z,4.23
2023-01-31T07:56:16.246Z,4.25
2023-01-31T07:57:48.530Z,4.32
2023-01-31T07:59:20.492Z,4.39
2023-01-31T08:01:12.573Z,4.43
2023-01-31T08:03:04.031Z,4.47
2023-01-31T08:04:36.410Z,4.51
2023-01-31T08:06:11.812Z,4.51
2023-01-31T08:07:43.807Z,4.59
2023-01-31T08:09:15.666Z,4.58
2023-01-31T08:10:47.535Z,4.60
2023-01-31T08:12:19.358Z,4.61
2023-01-31T08:13:51.246Z,4.62
2023-01-31T08:15:23.302Z,4.63
2023-01-31T08:16:56.009Z,4.63
2023-01-31T08:18:27.862Z,4.65
2023-01-31T08:19:59.649Z,4.67
2023-01-31T08:21:31.703Z,4.59
2023-01-31T08:23:03.927Z,4.64
2023-01-31T08:24:35.810Z,4.63
2023-01-31T08:26:10.772Z,4.62
2023-01-31T08:27:42.669Z,4.68
2023-01-31T08:29:14.528Z,4.72
2023-01-31T08:30:52.870Z,4.78
2023-01-31T08:32:31.650Z,4.90
2023-01-31T08:34:03.677Z,4.94
2023-01-31T08:35:35.634Z,4.96
2023-01-31T08:37:07.553Z,4.96
2023-01-31T08:38:39.691Z,5.04
2023-01-31T08:40:11.951Z,5.00
2023-01-31T08:41:43.898Z,4.99
2023-01-31T08:43:15.936Z,5.04
2023-01-31T08:44:47.814Z,5.01
2023-01-31T08:46:19.845Z,4.92
2023-01-31T08:47:55.867Z,4.97
2023-01-31T08:49:27.838Z,4.96
2023-01-31T08:51:01.363Z,4.91
2023-01-31T08:52:35.760Z,4.91
2023-01-31T08:54:07.847Z,4.91
2023-01-31T08:55:39.667Z,4.94
2023-01-31T08:57:11.901Z,4.99
2023-01-31T08:58:44.536Z,4.93
2023-01-31T09:00:17.033Z,4.88
2023-01-31T09:01:48.943Z,4.90
2023-01-31T09:03:21.028Z,4.94
2023-01-31T09:04:52.917Z,4.90
2023-01-31T09:06:26.261Z,4.92
2023-01-31T09:07:58.165Z,4.94
2023-01-31T09:09:30.699Z,4.97
2023-01-31T09:11:02.838Z,5.00
2023-01-31T09:12:36.051Z,5.04
2023-01-31T09:14:07.936Z,4.96
2023-01-31T09:15:39.847Z,5.05
2023-01-31T09:17:11.914Z,4.99
2023-01-31T09:18:43.892Z,4.90
2023-01-31T09:20:15.791Z,4.94
2023-01-31T09:21:47.601Z,4.92
2023-01-31T09:23:20.444Z,4.93
2023-01-31T09:24:52.326Z,4.96
2023-01-31T09:26:24.396Z,4.98
2023-01-31T09:27:56.297Z,4.91
2023-01-31T09:29:30.797Z,4.91
2023-01-31T09:31:06.471Z,4.92
2023-01-31T09:34:18.174Z,4.95
2023-01-31T09:36:03.282Z,4.99
2023-01-31T09:37:35.214Z,4.99
2023-01-31T09:39:07.101Z,5.01
2023-01-31T09:40:40.024Z,5.03
2023-01-31T09:42:19.348Z,5.06
2023-01-31T09:43:52.700Z,5.09
2023-01-31T09:45:30.907Z,5.15
2023-01-31T09:47:07.354Z,5.20
2023-01-31T09:48:39.266Z,5.20
2023-01-31T09:50:19.634Z,5.22
2023-01-31T09:51:53.614Z,5.26
2023-01-31T09:53:34.130Z,5.26
2023-01-31T09:55:08.532Z,5.30
2023-01-31T09:56:46.334Z,5.31
2023-01-31T09:58:24.107Z,5.34
2023-01-31T10:00:14.730Z,5.25
2023-01-31T10:01:50.007Z,5.28
2023-01-31T10:03:34.009Z,5.35
2023-01-31T10:05:30.719Z,5.32
2023-01-31T10:07:06.207Z,5.23
2023-01-31T10:08:41.458Z,5.21
2023-01-31T10:10:22.631Z,5.30
2023-01-31T10:11:58.902Z,5.32
2023-01-31T10:13:34.547Z,5.36
2023-01-31T10:15:11.274Z,5.35
2023-01-31T10:16:47.988Z,5.36
2023-01-31T10:18:29.302Z,5.35
2023-01-31T10:20:03.872Z,5.34
2023-01-31T10:21:46.567Z,5.36
2023-01-31T10:23:21.010Z,5.39
2023-01-31T10:24:55.129Z,5.38
2023-01-31T10:26:30.489Z,5.43
2023-01-31T10:28:21.285Z,5.41
2023-01-31T10:29:54.325Z,5.41
2023-01-31T10:31:26.180Z,5.49
2023-01-31T10:33:02.606Z,5.54
2023-01-31T10:34:36.627Z,5.54
2023-01-31T10:36:17.310Z,5.52
2023-01-31T10:37:56.898Z,5.53
2023-01-31T10:39:30.895Z,5.56
2023-01-31T10:41:07.313Z,5.46
2023-01-31T10:42:39.901Z,5.47
2023-01-31T10:44:23.503Z,5.50
2023-01-31T10:45:56.563Z,5.57
2023-01-31T10:47:31.588Z,5.56
2023-01-31T10:49:03.915Z,5.51
2023-01-31T10:50:48.642Z,5.51
2023-01-31T10:52:39.554Z,5.50
2023-01-31T10:54:13.418Z,5.50
2023-01-31T10:55:52.275Z,5.55
2023-01-31T10:57:24.257Z,5.53
2023-01-31T10:58:56.738Z,5.58
2023-01-31T11:00:30.180Z,5.66
2023-01-31T11:02:03.219Z,5.76
2023-01-31T11:03:35.492Z,5.82
2023-01-31T11:05:07.452Z,5.88
2023-01-31T11:06:42.003Z,5.91
2023-01-31T11:08:26.205Z,5.96
2023-01-31T11:09:58.912Z,5.93
2023-01-31T11:11:30.859Z,5.95
2023-01-31T11:13:07.527Z,5.99
2023-01-31T11:14:39.589Z,5.98
2023-01-31T11:16:11.805Z,5.94
2023-01-31T11:17:44.087Z,6.02
2023-01-31T11:19:21.516Z,5.92
2023-01-31T11:20:53.607Z,5.94
2023-01-31T11:22:26.761Z,5.99
2023-01-31T11:24:01.158Z,6.01
2023-01-31T11:25:33.152Z,6.04
2023-01-31T11:27:07.400Z,6.06
2023-01-31T11:28:40.641Z,6.04
2023-01-31T11:30:21.448Z,5.97
2023-01-31T11:31:53.716Z,6.04
2023-01-31T11:33:37.828Z,5.99
2023-01-31T11:35:30.081Z,5.93
2023-01-31T11:37:15.796Z,5.92
2023-01-31T11:38:47.706Z,5.89
2023-01-31T11:40:39.856Z,5.86
2023-01-31T11:42:15.763Z,5.85
2023-01-31T11:43:47.975Z,5.87
2023-01-31T11:45:21.745Z,5.81
2023-01-31T11:46:57.464Z,5.85
2023-01-31T11:48:30.855Z,5.82
2023-01-31T11:50:02.778Z,5.82
2023-01-31T11:51:34.656Z,5.90
2023-01-31T11:53:17.591Z,5.83
2023-01-31T11:54:56.215Z,5.82
2023-01-31T11:56:28.522Z,5.83
2023-01-31T11:58:00.459Z,5.86
2023-01-31T11:59:32.366Z,5.76
2023-01-31T12:01:17.666Z,5.79
2023-01-31T12:02:52.236Z,5.69
2023-01-31T12:04:30.907Z,5.72
2023-01-31T12:06:04.310Z,5.77
2023-01-31T12:08:02.550Z,5.75
2023-01-31T12:09:42.150Z,5.74
2023-01-31T12:11:19.733Z,5.74
2023-01-31T12:12:52.365Z,5.69
2023-01-31T12:14:25.507Z,5.68
2023-01-31T12:16:01.627Z,5.71
2023-01-31T12:17:34.818Z,5.70
2023-01-31T12:19:06.708Z,5.79
2023-01-31T12:20:54.336Z,5.86
2023-01-31T12:22:46.435Z,5.88
2023-01-31T12:24:21.320Z,5.95
2023-01-31T12:25:53.437Z,5.95
2023-01-31T12:27:32.098Z,5.98
2023-01-31T12:29:14.626Z,5.95
2023-01-31T12:30:55.611Z,6.01
2023-01-31T12:32:37.767Z,6.04
2023-01-31T12:34:09.794Z,6.06
2023-01-31T12:35:41.619Z,6.09
2023-01-31T12:37:29.111Z,6.10
2023-01-31T12:39:12.953Z,6.12
2023-01-31T12:40:50.697Z,6.12
2023-01-31T12:42:25.687Z,6.12
2023-01-31T12:44:16.605Z,5.97
2023-01-31T12:45:48.618Z,5.88
2023-01-31T12:47:41.187Z,5.93
2023-01-31T12:49:13.507Z,5.91
2023-01-31T12:50:48.052Z,5.98
2023-01-31T12:52:20.130Z,6.01
2023-01-31T12:53:55.148Z,6.01
2023-01-31T12:55:33.251Z,6.01
2023-01-31T12:57:05.097Z,6.00
2023-01-31T12:58:37.021Z,6.05
2023-01-31T13:00:15.177Z,6.02
2023-01-31T13:01:52.777Z,6.01
2023-01-31T13:03:43.412Z,6.01
2023-01-31T13:05:29.508Z,6.03
2023-01-31T13:07:03.236Z,6.00
2023-01-31T13:08:35.553Z,6.01
2023-01-31T13:10:08.370Z,6.05
2023-01-31T13:11:41.891Z,6.06
2023-01-31T13:13:18.565Z,6.04
2023-01-31T13:14:51.153Z,6.07
2023-01-31T13:16:24.394Z,6.08
2023-01-31T13:17:58.049Z,6.12
2023-01-31T13:19:30.061Z,6.12
2023-01-31T13:21:05.937Z,6.13
2023-01-31T13:22:56.734Z,6.17
2023-01-31T13:24:38.466Z,6.24
2023-01-31T13:26:11.914Z,6.30
2023-01-31T13:27:47.676Z,6.41
2023-01-31T13:29:19.714Z,6.43
2023-01-31T13:31:01.312Z,6.45
2023-01-31T13:32:39.958Z,6.40
2023-01-31T13:34:44.060Z,6.43
2023-01-31T13:36:26.163Z,6.45
2023-01-31T13:37:59.637Z,6.36
2023-01-31T13:39:33.797Z,6.27
2023-01-31T13:41:06.127Z,6.31
2023-01-31T13:42:37.969Z,6.28
2023-01-31T13:44:12.227Z,6.26
2023-01-31T13:46:02.607Z,6.18
2023-01-31T13:47:39.607Z,6.12
2023-01-31T13:49:17.405Z,5.98
2023-01-31T13:50:51.162Z,5.98
2023-01-31T13:52:42.531Z,5.94
2023-01-31T13:54:16.296Z,5.92
2023-01-31T13:55:48.591Z,5.92
2023-01-31T13:57:30.221Z,5.93
2023-01-31T13:59:02.233Z,5.89
2023-01-31T14:00:47.739Z,5.93
2023-01-31T14:02:19.701Z,5.92
2023-01-31T14:04:10.081Z,5.94
2023-01-31T14:05:51.077Z,5.92
2023-01-31T14:07:23.693Z,5.87
2023-01-31T14:08:59.444Z,5.92
2023-01-31T14:10:32.923Z,5.86
2023-01-31T14:12:07.724Z,5.79
2023-01-31T14:13:41.249Z,5.75
2023-01-31T14:15:31.550Z,5.75
2023-01-31T14:17:26.781Z,5.66
2023-01-31T14:19:02.295Z,5.64
2023-01-31T14:20:34.319Z,5.64
2023-01-31T14:22:13.035Z,5.58
2023-01-31T14:23:47.802Z,5.55
2023-01-31T14:25:20.128Z,5.49
2023-01-31T14:26:53.300Z,5.43
2023-01-31T14:28:26.542Z,5.44
2023-01-31T14:30:19.068Z,5.46
2023-01-31T14:31:51.216Z,5.36
2023-01-31T14:33:23.763Z,5.28
2023-01-31T14:34:55.786Z,5.24
2023-01-31T14:36:27.648Z,5.26
2023-01-31T14:38:11.945Z,5.29
2023-01-31T14:39:59.010Z,5.21
2023-01-31T14:41:33.980Z,5.24
2023-01-31T14:43:09.258Z,5.21
2023-01-31T14:44:47.139Z,5.19
2023-01-31T14:46:29.475Z,5.18
2023-01-31T14:48:09.390Z,5.22
2023-01-31T14:49:41.173Z,5.19
2023-01-31T14:51:13.056Z,5.22
2023-01-31T14:52:58.385Z,5.24
2023-01-31T14:54:30.510Z,5.11
2023-01-31T14:56:21.115Z,5.12
2023-01-31T14:57:54.091Z,5.11
2023-01-31T14:59:37.201Z,5.07
2023-01-31T15:01:09.088Z,5.06
2023-01-31T15:02:59.791Z,5.01
2023-01-31T15:04:32.376Z,5.04
2023-01-31T15:06:15.328Z,5.03
2023-01-31T15:08:05.737Z,4.99
2023-01-31T15:09:38.385Z,4.95
2023-01-31T15:11:40.602Z,4.98
2023-01-31T15:13:31.799Z,4.97
2023-01-31T15:15:05.793Z,4.96
2023-01-31T15:16:38.078Z,4.84
2023-01-31T15:18:19.752Z,4.90
2023-01-31T15:20:23.829Z,4.88
2023-01-31T15:21:56.708Z,4.91
2023-01-31T15:23:29.143Z,4.92
2023-01-31T15:25:04.165Z,4.86
2023-01-31T15:26:36.117Z,4.86
2023-01-31T15:28:10.903Z,4.86
2023-01-31T15:29:45.412Z,4.86
2023-01-31T15:31:18.885Z,4.81
2023-01-31T15:34:49.254Z,4.79
2023-01-31T15:36:24.911Z,4.78
2023-01-31T15:38:06.048Z,4.78
2023-01-31T15:39:41.838Z,4.71
2023-01-31T15:41:13.640Z,4.76
2023-01-31T15:42:45.550Z,4.72
2023-01-31T15:44:18.885Z,4.67
2023-01-31T15:45:54.120Z,4.69
2023-01-31T15:47:28.133Z,4.73
2023-01-31T15:49:00.924Z,4.73
2023-01-31T15:50:33.693Z,4.71
2023-01-31T15:52:08.068Z,4.72
2023-01-31T15:53:40.446Z,4.64
2023-01-31T15:55:16.326Z,4.70
2023-01-31T15:56:48.194Z,4.66
2023-01-31T15:58:20.970Z,4.66
2023-01-31T15:59:52.894Z,4.68
2023-01-31T16:01:24.883Z,4.70
2023-01-31T16:04:47.469Z,4.66
2023-01-31T16:06:22.137Z,4.64
2023-01-31T16:07:54.064Z,4.63
2023-01-31T16:09:32.543Z,4.63
2023-01-31T16:11:08.351Z,4.53
2023-01-31T16:12:41.121Z,4.53
2023-01-31T16:14:12.936Z,4.56
2023-01-31T16:15:44.763Z,4.50
2023-01-31T16:17:16.704Z,4.53
2023-01-31T16:18:52.890Z,4.53
2023-01-31T16:20:38.145Z,4.51
2023-01-31T16:22:25.114Z,4.48
2023-01-31T16:23:57.887Z,4.49
2023-01-31T16:25:29.725Z,4.50
2023-01-31T16:27:03.809Z,4.49
2023-01-31T16:28:45.343Z,4.46
2023-01-31T16:30:17.616Z,4.42
2023-01-31T16:31:51.252Z,4.43
2023-01-31T16:33:23.509Z,4.40
2023-01-31T16:34:56.540Z,4.41
2023-01-31T16:36:30.474Z,4.43
2023-01-31T16:39:44.289Z,4.42
2023-01-31T16:41:16.174Z,4.43
2023-01-31T16:42:48.092Z,4.40
2023-01-31T16:44:20.521Z,4.41
2023-01-31T16:45:53.898Z,4.36
2023-01-31T16:47:51.523Z,4.38
2023-01-31T16:49:23.485Z,4.36
2023-01-31T16:50:56.418Z,4.33
2023-01-31T16:52:29.511Z,4.33
2023-01-31T16:54:20.225Z,4.34
2023-01-31T16:56:10.739Z,4.36
2023-01-31T16:57:42.603Z,4.34
2023-01-31T16:59:32.547Z,4.35
2023-01-31T17:01:12.070Z,4.33
2023-01-31T17:02:44.002Z,4.32
2023-01-31T17:04:17.427Z,4.31
2023-01-31T17:05:49.220Z,4.31
2023-01-31T17:07:33.729Z,4.30
2023-01-31T17:09:06.767Z,4.30
2023-01-31T17:10:38.634Z,4.22
2023-01-31T17:12:20.830Z,4.16
2023-01-31T17:13:52.863Z,4.12
2023-01-31T17:15:24.731Z,4.15
2023-01-31T17:16:56.640Z,4.20
2023-01-31T17:18:28.469Z,4.23
2023-01-31T17:20:00.419Z,4.19
2023-01-31T17:21:33.563Z,4.16
2023-01-31T17:23:06.605Z,4.13
2023-01-31T17:24:38.388Z,4.16
2023-01-31T17:26:20.558Z,4.12
2023-01-31T17:27:52.412Z,4.12
2023-01-31T17:29:26.303Z,4.08
2023-01-31T17:30:58.259Z,4.05
2023-01-31T17:32:32.254Z,4.09
2023-01-31T17:34:04.272Z,4.01
2023-01-31T17:35:36.818Z,3.98
2023-01-31T17:38:42.901Z,3.96
2023-01-31T17:40:14.844Z,3.85
2023-01-31T17:41:47.491Z,3.89
2023-01-31T18:42:35.183Z,3.93
2023-01-31T18:44:07.077Z,3.96
2023-01-31T18:45:38.930Z,3.85
2023-01-31T18:47:11.457Z,3.91
2023-01-31T18:48:44.449Z,3.87
2023-01-31T18:50:16.479Z,3.86
2023-01-31T18:51:49.989Z,3.91
2023-01-31T18:53:22.106Z,3.95
2023-01-31T18:54:54.742Z,3.89
2023-01-31T18:56:26.758Z,3.90
2023-01-31T18:57:58.647Z,3.90
2023-01-31T18:59:30.516Z,3.91
2023-01-31T19:01:06.938Z,3.92
2023-01-31T19:02:38.810Z,3.93
2023-01-31T19:04:10.785Z,3.98
2023-01-31T19:05:42.620Z,3.99
2023-01-31T19:07:14.407Z,3.93
2023-01-31T19:08:52.345Z,3.95
2023-01-31T19:10:24.875Z,3.93
2023-01-31T19:11:59.100Z,3.95
2023-01-31T19:13:33.026Z,3.85
2023-01-31T19:15:09.095Z,3.91
2023-01-31T19:16:41.467Z,3.91
2023-01-31T19:18:15.142Z,3.90
2023-01-31T19:19:46.985Z,3.92
2023-01-31T19:21:29.383Z,3.95
2023-01-31T19:23:01.329Z,3.97
2023-01-31T19:24:33.375Z,3.98
2023-01-31T19:26:05.284Z,3.98
2023-01-31T19:27:37.143Z,3.95
2023-01-31T19:29:10.069Z,3.94
2023-01-31T19:30:42.124Z,3.93
2023-01-31T19:32:14.011Z,3.91
2023-01-31T19:33:49.895Z,3.85
2023-01-31T19:35:22.053Z,3.87
2023-01-31T19:36:54.161Z,3.89
2023-01-31T19:38:26.077Z,3.85
2023-01-31T19:39:57.952Z,3.88
2023-01-31T19:41:30.048Z,3.76
2023-01-31T19:43:01.919Z,3.75
2023-01-31T19:44:33.741Z,3.74
2023-01-31T19:46:06.027Z,3.74
2023-01-31T19:47:37.944Z,3.74
2023-01-31T19:49:09.831Z,3.76
2023-01-31T19:50:42.142Z,3.77
2023-01-31T19:52:14.256Z,3.74
2023-01-31T19:53:46.734Z,3.76
2023-01-31T19:55:18.769Z,3.77
2023-01-31T19:56:50.812Z,3.67
2023-01-31T19:58:23.135Z,3.70
2023-01-31T19:59:54.960Z,3.68
2023-01-31T20:01:26.820Z,3.65
2023-01-31T20:02:58.655Z,3.74
2023-01-31T20:04:32.734Z,3.75
2023-01-31T20:06:08.633Z,3.71
2023-01-31T20:07:42.846Z,3.65
2023-01-31T20:09:20.398Z,3.67
2023-01-31T20:12:32.311Z,3.67
2023-01-31T20:14:04.820Z,3.62
2023-01-31T20:15:38.255Z,3.65
2023-01-31T20:17:10.044Z,3.62
2023-01-31T20:18:42.603Z,3.61
2023-01-31T20:20:14.461Z,3.63
2023-01-31T20:21:46.384Z,3.57
2023-01-31T20:23:18.182Z,3.61
2023-01-31T20:24:50.153Z,3.58
2023-01-31T20:26:24.689Z,3.49
2023-01-31T20:27:56.786Z,3.48
2023-01-31T20:29:28.721Z,3.58
2023-01-31T20:31:07.072Z,3.58
2023-01-31T20:32:38.998Z,3.65
2023-01-31T20:34:10.972Z,3.55
2023-01-31T20:35:43.240Z,3.53
2023-01-31T20:37:15.164Z,3.50
2023-01-31T20:38:47.397Z,3.52
2023-01-31T20:40:19.506Z,3.50
2023-01-31T20:41:51.565Z,3.48
2023-01-31T20:43:24.329Z,3.51
2023-01-31T20:44:56.118Z,3.49
2023-01-31T20:46:28.204Z,3.51
2023-01-31T20:48:00.240Z,3.45
2023-01-31T20:49:32.287Z,3.49
2023-01-31T20:51:04.935Z,3.55
2023-01-31T20:52:36.871Z,3.53
2023-01-31T20:54:08.702Z,3.52
2023-01-31T20:55:42.975Z,3.45
2023-01-31T20:57:15.105Z,3.48
2023-01-31T20:58:47.038Z,3.56
2023-01-31T21:00:22.669Z,3.50
2023-01-31T21:01:54.758Z,3.44
2023-01-31T21:03:26.929Z,3.53
2023-01-31T21:04:58.749Z,3.57
2023-01-31T21:06:30.566Z,3.51
2023-01-31T21:08:02.437Z,3.50
2023-01-31T21:09:34.229Z,3.51
2023-01-31T21:11:08.999Z,3.50
2023-01-31T21:12:40.887Z,3.50
2023-01-31T21:14:12.683Z,3.42
2023-01-31T21:15:48.598Z,3.53
2023-01-31T21:17:24.759Z,3.49
2023-01-31T21:19:03.017Z,3.45
2023-01-31T21:20:35.850Z,3.50
2023-01-31T21:22:07.626Z,3.49
2023-01-31T21:23:40.349Z,3.55
2023-01-31T21:25:12.168Z,3.50
2023-01-31T21:26:44.088Z,3.53
2023-01-31T21:28:16.074Z,3.54
2023-01-31T21:29:47.887Z,3.58
2023-01-31T21:31:22.781Z,3.60
2023-01-31T21:32:54.743Z,3.61
2023-01-31T21:34:27.490Z,3.59
2023-01-31T21:36:00.913Z,3.60
2023-01-31T21:37:32.720Z,3.61
2023-01-31T21:39:04.754Z,3.66
2023-01-31T21:40:39.358Z,3.58
2023-01-31T21:42:19.285Z,3.60
2023-01-31T21:43:51.176Z,3.63
2023-01-31T21:45:40.064Z,3.70
2023-01-31T21:47:12.245Z,3.63
2023-01-31T21:48:44.149Z,3.63
2023-01-31T21:50:15.987Z,3.70
2023-01-31T21:51:47.882Z,3.69
2023-01-31T21:53:19.889Z,3.69
2023-01-31T21:54:51.808Z,3.68
2023-01-31T21:56:25.122Z,3.68
2023-01-31T21:57:56.974Z,3.76
2023-01-31T21:59:28.771Z,3.76
2023-01-31T22:01:04.773Z,3.73
2023-01-31T22:02:36.706Z,3.77
2023-01-31T22:04:08.786Z,3.72
2023-01-31T22:05:40.663Z,3.72
2023-01-31T22:07:15.693Z,3.73
2023-01-31T22:08:52.017Z,3.74
2023-01-31T22:10:24.161Z,3.76
2023-01-31T22:11:56.088Z,3.78
2023-01-31T22:13:28.141Z,3.75
2023-01-31T22:15:00.031Z,3.77
2023-01-31T22:16:31.984Z,3.81